createdAt,value
2023-02-27T00:01:50.330Z,93.25
2023-02-27T00:06:54.196Z,93.82
2023-02-27T00:11:57.782Z,94.83
2023-02-27T00:17:00.911Z,95.26
2023-02-27T00:22:03.879Z,95.03
2023-02-27T00:27:06.861Z,94.62
2023-02-27T00:32:10.217Z,94.21
2023-02-27T00:37:14.255Z,94.58
2023-02-27T00:42:17.620Z,94.61
2023-02-27T00:47:22.972Z,95.52
2023-02-27T00:52:27.162Z,96.46
2023-02-27T00:57:31.101Z,96.75
2023-02-27T01:02:35.292Z,97.63
2023-02-27T01:07:38.903Z,95.38
2023-02-27T01:12:42.987Z,95.56
2023-02-27T01:17:48.233Z,96.78
2023-02-27T01:22:51.939Z,94.99
2023-02-27T01:27:54.927Z,92.63
2023-02-27T01:32:58.706Z,93.89
2023-02-27T01:38:02.170Z,94.64
2023-02-27T01:43:06.484Z,94.47
2023-02-27T01:48:10.092Z,94.58
2023-02-27T01:53:15.210Z,93.82
2023-02-27T01:58:18.972Z,92.73
2023-02-27T02:03:34.493Z,92.70
2023-02-27T02:08:42.987Z,92.14
2023-02-27T02:13:50.097Z,90.83
2023-02-27T02:19:15.120Z,90.49
2023-02-27T02:24:30.895Z,90.72
2023-02-27T02:29:45.782Z,87.86
2023-02-27T02:35:12.291Z,87.21
2023-02-27T02:40:41.985Z,86.81
2023-02-27T02:46:19.430Z,85.21
2023-02-27T02:51:44.834Z,87.44
2023-02-27T02:56:52.824Z,91.01
2023-02-27T03:02:10.649Z,92.90
2023-02-27T03:07:43.007Z,93.98
2023-02-27T03:12:52.217Z,94.21
2023-02-27T03:18:10.310Z,94.07
2023-02-27T03:23:28.961Z,93.36
2023-02-27T03:28:36.848Z,92.81
2023-02-27T03:33:52.570Z,93.36
2023-02-27T03:39:05.840Z,92.96
2023-02-27T03:44:24.762Z,92.33
2023-02-27T03:49:30.079Z,91.90
2023-02-27T03:54:38.067Z,91.87
2023-02-27T03:59:41.389Z,92.27
2023-02-27T04:04:45.013Z,93.15
2023-02-27T04:10:16.819Z,93.66
2023-02-27T04:15:33.457Z,94.06
2023-02-27T04:20:56.496Z,94.74
2023-02-27T04:26:09.327Z,95.23
2023-02-27T04:31:44.193Z,96.35
2023-02-27T04:36:57.415Z,96.56
2023-02-27T04:42:12.549Z,97.53
2023-02-27T04:47:18.091Z,98.75
2023-02-27T04:52:32.302Z,100.00
2023-02-27T04:57:41.502Z,100.00
2023-02-27T05:02:49.860Z,100.00
2023-02-27T05:07:58.799Z,100.00
2023-02-27T05:13:20.271Z,100.00
2023-02-27T05:18:25.114Z,100.00
2023-02-27T05:23:58.846Z,100.00
2023-02-27T05:29:06.715Z,100.00
2023-02-27T05:34:32.153Z,100.00
2023-02-27T05:39:38.845Z,100.00
2023-02-27T05:44:52.100Z,100.00
2023-02-27T05:50:18.070Z,100.00
2023-02-27T05:55:28.702Z,100.00
2023-02-27T06:00:47.198Z,100.00
2023-02-27T06:05:55.578Z,100.00
2023-02-27T06:10:59.139Z,100.00
2023-02-27T06:16:02.309Z,100.00
2023-02-27T06:21:05.733Z,100.00
2023-02-27T06:26:08.736Z,100.00
2023-02-27T06:31:11.856Z,100.00
2023-02-27T06:36:15.599Z,100.00
2023-02-27T06:41:19.421Z,100.00
2023-02-27T06:46:23.605Z,100.00
2023-02-27T06:51:27.169Z,99.17
2023-02-27T06:56:30.637Z,98.04
2023-02-27T07:01:34.182Z,98.01
2023-02-27T07:07:36.212Z,97.74
2023-02-27T07:12:00.797Z,97.16
2023-02-27T07:17:05.012Z,97.26
2023-02-27T07:22:10.050Z,98.29
2023-02-27T07:27:13.444Z,97.25
2023-02-27T07:32:17.143Z,96.75
2023-02-27T07:37:20.128Z,96.02
2023-02-27T07:42:24.143Z,96.73
2023-02-27T07:47:27.524Z,93.98
2023-02-27T07:52:31.585Z,89.83
2023-02-27T07:57:34.655Z,91.38
2023-02-27T08:02:38.622Z,93.81
2023-02-27T08:07:42.096Z,94.08
2023-02-27T08:12:45.126Z,93.46
2023-02-27T08:17:48.863Z,93.64
2023-02-27T08:22:52.171Z,93.10
2023-02-27T08:27:55.320Z,93.06
2023-02-27T08:32:58.537Z,94.68
2023-02-27T08:38:01.709Z,95.88
2023-02-27T08:43:04.718Z,95.35
2023-02-27T08:48:08.745Z,95.47
2023-02-27T08:53:12.809Z,95.34
2023-02-27T08:58:17.858Z,95.85
2023-02-27T09:03:21.798Z,95.96
2023-02-27T09:08:25.272Z,96.48
2023-02-27T09:13:28.837Z,97.16
2023-02-27T09:18:31.773Z,95.74
2023-02-27T09:23:35.509Z,93.42
2023-02-27T09:28:40.348Z,90.41
2023-02-27T09:33:44.687Z,89.51
2023-02-27T09:38:48.045Z,86.81
2023-02-27T09:43:52.593Z,79.30
2023-02-27T09:49:00.283Z,71.71
2023-02-27T09:54:05.797Z,67.55
2023-02-27T09:59:33.828Z,67.22
2023-02-27T10:05:15.555Z,66.24
2023-02-27T10:10:51.998Z,67.20
2023-02-27T10:15:55.715Z,61.43
2023-02-27T10:21:02.961Z,62.64
2023-02-27T10:26:07.165Z,67.29
2023-02-27T10:31:20.881Z,67.02
2023-02-27T10:36:33.775Z,65.43
2023-02-27T10:41:39.940Z,59.58
2023-02-27T10:46:44.453Z,59.85
2023-02-27T10:52:04.744Z,57.03
2023-02-27T10:57:36.321Z,56.60
2023-02-27T11:02:42.726Z,58.95
2023-02-27T11:07:46.525Z,55.76
2023-02-27T11:13:07.058Z,58.49
2023-02-27T11:18:21.948Z,58.72
2023-02-27T11:23:26.095Z,57.61
2023-02-27T11:28:30.771Z,55.08
2023-02-27T11:33:40.767Z,56.78
2023-02-27T11:38:53.537Z,56.87
2023-02-27T11:43:59.632Z,55.52
2023-02-27T11:49:28.969Z,56.40
2023-02-27T11:54:43.321Z,56.41
2023-02-27T12:00:06.999Z,56.23
2023-02-27T12:05:30.975Z,52.59
2023-02-27T12:10:48.848Z,51.57
2023-02-27T12:16:04.698Z,48.97
2023-02-27T12:21:33.872Z,48.07
2023-02-27T12:26:41.947Z,50.04
2023-02-27T12:31:53.622Z,48.20
2023-02-27T12:37:15.768Z,46.96
2023-02-27T12:42:37.496Z,46.88
2023-02-27T12:48:11.609Z,48.15
2023-02-27T12:53:36.077Z,47.65
2023-02-27T12:58:51.049Z,47.17
2023-02-27T13:04:22.602Z,46.07
2023-02-27T13:09:44.672Z,47.05
2023-02-27T13:14:56.267Z,45.14
2023-02-27T13:20:45.021Z,45.58
2023-02-27T13:25:52.286Z,44.54
2023-02-27T13:31:10.968Z,41.89
2023-02-27T13:36:56.810Z,41.35
2023-02-27T13:42:00.816Z,38.83
2023-02-27T13:47:48.143Z,38.96
2023-02-27T13:52:52.263Z,38.31
2023-02-27T13:57:59.023Z,35.50
2023-02-27T14:03:05.893Z,36.50
2023-02-27T14:08:30.931Z,34.74
2023-02-27T14:13:45.932Z,32.07
2023-02-27T14:18:55.250Z,32.48
2023-02-27T14:23:58.863Z,31.72
2023-02-27T14:29:02.665Z,30.59
2023-02-27T14:34:06.877Z,31.34
2023-02-27T14:39:32.701Z,30.81
2023-02-27T14:44:44.565Z,31.49
2023-02-27T14:49:48.541Z,32.45
2023-02-27T14:54:52.683Z,30.48
2023-02-27T14:59:56.192Z,30.94
2023-02-27T15:05:02.317Z,31.60
2023-02-27T15:10:08.529Z,31.64
2023-02-27T15:15:19.365Z,30.58
2023-02-27T15:20:30.295Z,32.00
2023-02-27T15:25:33.237Z,30.29
2023-02-27T15:30:36.671Z,31.23
2023-02-27T15:35:44.532Z,33.59
2023-02-27T15:40:47.699Z,32.78
2023-02-27T15:45:53.007Z,33.29
2023-02-27T15:50:59.904Z,34.83
2023-02-27T15:56:09.765Z,34.95
2023-02-27T16:01:23.014Z,34.32
2023-02-27T16:06:33.825Z,34.47
2023-02-27T16:11:38.604Z,36.48
2023-02-27T16:16:41.791Z,36.57
2023-02-27T16:22:13.505Z,39.21
2023-02-27T16:27:28.703Z,40.43
2023-02-27T16:32:39.231Z,40.57
2023-02-27T16:37:46.427Z,41.92
2023-02-27T16:42:50.912Z,43.26
2023-02-27T16:47:56.751Z,42.23
2023-02-27T16:53:00.263Z,43.15
2023-02-27T16:58:03.735Z,44.49
2023-02-27T17:03:07.652Z,44.75
2023-02-27T17:08:11.842Z,44.40
2023-02-27T17:13:15.962Z,44.83
2023-02-27T17:18:19.892Z,45.82
2023-02-27T17:23:23.796Z,45.50
2023-02-27T17:28:27.358Z,46.63
2023-02-27T17:33:32.291Z,47.88
2023-02-27T17:38:35.528Z,48.87
2023-02-27T17:43:39.137Z,50.32
2023-02-27T17:48:43.069Z,50.97
2023-02-27T17:53:47.251Z,50.51
2023-02-27T17:58:50.774Z,51.07
2023-02-27T18:03:55.650Z,51.03
2023-02-27T18:08:59.314Z,52.11
2023-02-27T18:14:03.280Z,52.40
2023-02-27T18:19:07.736Z,50.31
2023-02-27T18:24:10.825Z,44.63
2023-02-27T18:29:14.716Z,42.32
2023-02-27T18:34:18.225Z,39.22
2023-02-27T18:39:23.128Z,35.23
2023-02-27T18:44:26.700Z,34.28
2023-02-27T18:49:30.410Z,32.76
2023-02-27T18:54:33.410Z,31.61
2023-02-27T18:59:38.038Z,31.54
2023-02-27T19:04:42.235Z,30.80
2023-02-27T19:09:45.656Z,31.33
2023-02-27T19:14:50.057Z,30.05
2023-02-27T19:19:53.994Z,30.60
2023-02-27T19:24:57.599Z,29.61
2023-02-27T19:30:01.794Z,30.08
2023-02-27T19:35:05.665Z,31.88
2023-02-27T19:40:11.323Z,32.24
2023-02-27T19:45:14.319Z,32.76
2023-02-27T19:50:17.723Z,34.36
2023-02-27T19:55:20.789Z,33.43
2023-02-27T20:00:25.006Z,33.11
2023-02-27T20:05:28.476Z,34.60
2023-02-27T20:10:31.501Z,34.28
2023-02-27T20:15:34.908Z,35.74
2023-02-27T20:20:40.292Z,35.80
2023-02-27T20:25:44.319Z,35.62
2023-02-27T20:30:47.271Z,34.86
2023-02-27T20:35:51.158Z,36.26
2023-02-27T20:40:58.852Z,35.12
2023-02-27T20:46:06.881Z,36.00
2023-02-27T20:51:17.642Z,37.14
2023-02-27T20:56:23.969Z,37.05
2023-02-27T21:01:28.183Z,39.68
2023-02-27T21:06:32.322Z,39.23
2023-02-27T21:11:35.880Z,40.87
2023-02-27T21:16:40.961Z,41.85
2023-02-27T21:21:44.801Z,42.68
2023-02-27T21:26:48.070Z,43.36
2023-02-27T21:31:52.382Z,45.10
2023-02-27T21:36:56.167Z,46.10
2023-02-27T21:41:59.845Z,47.53
2023-02-27T21:47:10.415Z,47.49
2023-02-27T21:52:13.805Z,48.16
2023-02-27T21:57:17.130Z,49.38
2023-02-27T22:02:20.619Z,49.24
2023-02-27T22:07:23.561Z,51.29
2023-02-27T22:12:27.254Z,51.68
2023-02-27T22:17:30.268Z,52.07
2023-02-27T22:22:34.245Z,51.35
2023-02-27T22:27:37.636Z,50.52
2023-02-27T22:32:41.198Z,50.72
2023-02-27T22:37:45.104Z,50.05
2023-02-27T22:42:50.601Z,50.07
2023-02-27T22:47:54.262Z,49.42
2023-02-27T22:52:57.246Z,50.38
2023-02-27T22:58:00.816Z,51.00
2023-02-27T23:03:04.501Z,51.57
2023-02-27T23:08:08.006Z,52.14
2023-02-27T23:13:11.520Z,51.19
2023-02-27T23:18:14.508Z,52.98
2023-02-27T23:23:18.511Z,53.01
2023-02-27T23:28:21.602Z,53.60
2023-02-27T23:33:25.557Z,52.26
2023-02-27T23:38:29.852Z,52.50
2023-02-27T23:43:34.126Z,54.84
2023-02-27T23:48:37.884Z,54.39
2023-02-27T23:53:43.172Z,54.05
2023-02-27T23:58:47.108Z,55.03
